S&P 500   3,292.29 (-0.07%)
DOW   26,682.92 (+0.07%)
QQQ   268.63 (-0.28%)
GOOGL   1,478.00 (-0.32%)
S&P 500   3,292.29 (-0.07%)
DOW   26,682.92 (+0.07%)
QQQ   268.63 (-0.28%)
GOOGL   1,478.00 (-0.32%)
S&P 500   3,292.29 (-0.07%)
DOW   26,682.92 (+0.07%)
QQQ   268.63 (-0.28%)
GOOGL   1,478.00 (-0.32%)
S&P 500   3,292.29 (-0.07%)
DOW   26,682.92 (+0.07%)
QQQ   268.63 (-0.28%)
GOOGL   1,478.00 (-0.32%)
Log in

NASDAQ:TWNKHostess Brands Institutional Ownership

$12.86
-0.06 (-0.46 %)
(As of 08/4/2020 09:39 AM ET)
Add
Compare
Today's Range
$12.86
Now: $12.86
$12.99
50-Day Range
$11.46
MA: $12.18
$12.68
52-Week Range
$9.32
Now: $12.86
$14.72
Volume51 shs
Average Volume955,183 shs
Market Capitalization$1.68 billion
P/E Ratio35.72
Dividend YieldN/A
Beta0.79

Institutional Ownership

Institutional Ownership Changes (13F Filings) for Hostess Brands (NASDAQ:TWNK)

 

Institutional Buying and Selling by Quarter


Hostess Brands (NASDAQ TWNK) Institutional Buying and Selling

Reporting DateHedge FundShares HeldMarket Value% of PortfolioQuarterly Change in SharesOwnership in Company
8/3/2020ProShare Advisors LLC16,629$0.20M0.0%N/A0.013%
7/31/2020UBS Group AG49,515$0.61M0.0%-80.3%0.038%
7/30/2020Signaturefd LLC7,408$91K0.0%+28.0%0.006%
7/30/2020Morningstar Investment Services LLC29,580$0.36M0.0%+19.0%0.023%
7/29/2020M&T Bank Corp42,483$0.52M0.0%-3.6%0.033%
7/29/2020Campbell & CO Investment Adviser LLC41,266$0.50M0.6%N/A0.032%
7/28/2020Fenimore Asset Management Inc.1,179,386$14.41M0.5%-16.6%0.903%
7/28/2020Raymond James & Associates2,176,765$26.60M0.0%+9.8%1.666%
7/27/2020MAI Capital Management11,009$0.14M0.0%-17.2%0.008%
7/22/2020First Trust Advisors LP22,823$0.28M0.0%-59.5%0.017%
7/22/2020Summit Place Financial Advisors LLC51,200$0.63M1.0%+54.4%0.039%
7/20/2020SG Americas Securities LLC88,924$1.09M0.0%+246.0%0.068%
7/16/2020Raymond James Trust N.A.13,769$0.17M0.0%+10.5%0.011%
7/15/2020AMI Asset Management Corp586,896$7.17M0.4%-2.0%0.449%
7/13/2020Alpha Windward LLC28,320$0.35M0.3%N/A0.022%
7/8/2020Envestnet Asset Management Inc.57,131$0.70M0.0%+148.7%0.044%
7/7/2020Diversified Trust Co47,300$0.58M0.0%+4.8%0.036%
6/19/2020State Street Corp2,557,760$27.27M0.0%-1.0%1.958%
6/16/2020Royal Bank of Canada2,740,043$29.21M0.0%+6.6%2.097%
6/2/2020Guggenheim Capital LLC51,154$0.55M0.0%-14.7%0.039%
5/19/2020Maverick Capital Ltd.304,586$3.25M0.1%-12.5%0.233%
5/18/2020Advisor Group Holdings Inc.3,493$38K0.0%N/A0.003%
5/15/2020AQR Capital Management LLC15,381$0.16M0.0%+31.9%0.012%
5/15/2020Squarepoint Ops LLC468,028$4.99M0.1%-33.2%0.358%
5/15/2020Jane Street Group LLC21,135$0.23M0.0%-48.8%0.016%
5/15/2020Invesco Ltd.170,774$1.82M0.0%+17.9%0.131%
5/15/2020Tudor Investment Corp Et Al20,599$0.22M0.0%-79.1%0.016%
5/15/2020Morgan Stanley38,566$0.41M0.0%-90.6%0.030%
5/15/2020Maverick Capital Ltd.304,586$3.25M0.1%-12.5%0.233%
5/15/2020Two Sigma Investments LP667,339$7.11M0.1%+81.0%0.511%
5/15/2020Two Sigma Advisers LP830,100$8.85M0.0%-7.0%0.635%
5/15/2020Balyasny Asset Management LLC228,647$2.44M0.0%-79.7%0.175%
5/15/2020AMG National Trust Bank81,347$0.87M0.1%+11.4%0.062%
5/14/2020Rothschild & Co. Asset Management US Inc.2,234,114$23.82M0.4%+7.3%1.710%
5/14/2020Wells Fargo & Company MN4,437,571$47.31M0.0%+7.9%3.397%
5/14/2020Geode Capital Management LLC1,757,153$18.73M0.0%+7.0%1.345%
5/14/2020Janus Henderson Group PLC4,555,027$48.56M0.0%-14.9%3.487%
5/14/2020Wellington Management Group LLP5,466,006$58.27M0.0%-3.3%4.184%
5/14/2020Fort L.P.78,337$0.84M0.2%+3.6%0.060%
5/14/2020Legal & General Group Plc62,821$0.67M0.0%-7.5%0.048%
5/14/2020Massachusetts Financial Services Co. MA3,352,199$35.73M0.0%-10.7%2.566%
5/14/2020Deutsche Bank AG455,991$4.86M0.0%+33.5%0.349%
5/14/2020Dean Capital Management51,125$0.55M0.8%N/A0.039%
5/14/2020Champlain Investment Partners LLC9,838,905$104.88M0.9%-0.5%7.532%
5/14/2020M&T Bank Corp44,060$0.47M0.0%+8.6%0.034%
5/14/2020Nuveen Asset Management LLC3,267,006$34.83M0.0%-12.5%2.501%
5/13/2020King Luther Capital Management Corp112,950$1.20M0.0%-44.3%0.086%
5/13/2020Parametric Portfolio Associates LLC1,070,793$11.42M0.0%+6.3%0.820%
5/13/2020361 Capital LLC76,255$0.81M0.4%-19.2%0.058%
5/13/2020BNP Paribas Arbitrage SA39,512$0.42M0.0%+17.8%0.030%
5/13/2020Horizon Kinetics Asset Management LLC15,242$0.16M0.0%-21.8%0.012%
5/13/2020Federated Hermes Inc.423,412$4.51M0.0%+8.6%0.324%
5/13/2020Franklin Resources Inc.1,193,377$12.72M0.0%+0.1%0.914%
5/12/2020Citigroup Inc.68,986$0.74M0.0%+17.8%0.053%
5/12/2020Sowell Financial Services LLC18,564$0.20M0.0%+2,594.3%0.014%
5/12/2020Principal Financial Group Inc.14,403$0.15M0.0%+41.2%0.011%
5/12/2020Victory Capital Management Inc.6,533,261$69.65M0.1%-13.1%5.001%
5/12/2020JPMorgan Chase & Co.540,798$5.77M0.0%+122.9%0.414%
5/11/2020Acadian Asset Management LLC68,172$0.73M0.0%N/A0.052%
5/11/2020State Street Corp2,557,760$27.27M0.0%-1.0%1.958%
5/11/2020WINTON GROUP Ltd366,519$3.91M0.1%+18.2%0.281%
5/11/2020Martingale Asset Management L P511,446$5.45M0.1%+12.5%0.392%
5/8/2020ETRADE Capital Management LLC72,928$0.78M0.0%+44.3%0.056%
5/8/2020PNC Financial Services Group Inc.13,878$0.15M0.0%+9.5%0.011%
5/8/2020Swiss National Bank234,600$2.50M0.0%+1.4%0.180%
5/8/2020Aigen Investment Management LP17,395$0.19M0.0%+434,775.0%0.013%
5/7/2020Palouse Capital Management Inc.14,146$0.15M0.1%N/A0.011%
5/6/2020Zurcher Kantonalbank Zurich Cantonalbank13,006$0.14M0.0%+36.3%0.010%
5/6/2020First Trust Advisors LP56,350$0.60M0.0%-66.0%0.043%
5/6/2020Russell Investments Group Ltd.796,690$8.49M0.0%+60.5%0.610%
5/6/2020Bank of New York Mellon Corp579,559$6.18M0.0%-1.5%0.444%
5/6/2020Rhumbline Advisers204,668$2.18M0.0%+5.5%0.157%
5/5/2020Arizona State Retirement System28,394$0.30M0.0%N/A0.022%
5/5/2020Aperio Group LLC87,619$0.93M0.0%+430.1%0.067%
5/4/2020Los Angeles Capital Management & Equity Research Inc.168,061$1.79M0.0%+512.6%0.129%
5/4/2020Morningstar Investment Services LLC24,855$0.26M0.0%N/A0.019%
5/4/2020American International Group Inc.70,748$0.75M0.0%-5.5%0.054%
5/4/2020Victory Capital Management Inc.6,533,261$69.65M0.1%-13.1%5.001%
5/2/2020SG Americas Securities LLC25,700$0.27M0.0%+35.5%0.020%
5/1/2020BlackRock Inc.9,584,117$102.17M0.0%-2.9%7.337%
5/1/2020UBS Group AG250,975$2.68M0.0%+3,550.5%0.192%
4/30/2020Robeco Institutional Asset Management B.V.12,441$0.13M0.0%-73.6%0.010%
4/30/2020Bessemer Group Inc.266,500$2.84M0.0%+8.7%0.204%
4/27/2020AMI Asset Management Corp598,671$6.38M0.4%-2.7%0.458%
4/24/2020Fenimore Asset Management Inc.1,413,766$15.07M0.6%+0.6%1.082%
4/23/2020Envestnet Asset Management Inc.22,972$0.25M0.0%+15.3%0.018%
4/23/2020Signaturefd LLC5,789$62K0.0%+55.3%0.004%
4/22/2020Summit Place Financial Advisors LLC33,150$0.35M0.8%+16.1%0.025%
4/21/2020Raymond James & Associates1,982,169$21.13M0.0%+2.1%1.517%
4/17/2020Sciencast Management LP24,713$0.25M0.1%-13.1%0.019%
4/17/2020Nisa Investment Advisors LLC5,900$63K0.0%N/A0.005%
4/16/2020MAI Capital Management13,295$0.14M0.0%-29.9%0.010%
4/13/2020Wedge Capital Management L L P NC10,389$0.11M0.0%N/A0.008%
4/13/2020Valeo Financial Advisors LLC4,700$56K0.0%+135.0%0.004%
4/10/2020Diversified Trust Co45,126$0.48M0.0%+7.0%0.035%
3/11/2020Franklin Resources Inc.1,191,827$17.33M0.0%+8.8%0.912%
3/5/2020Nuveen Asset Management LLC3,734,290$54.30M0.0%-0.9%2.864%
3/3/2020Norges Bank1,511,082$21.97M0.0%N/A1.159%
2/28/2020Kennedy Capital Management Inc.368,755$5.36M0.1%N/A0.283%
2/28/2020Sofos Investments Inc.2,366$34K0.0%-31.7%0.002%
(Data available from 1/1/2016 forward)
This page was last updated on 8/4/2020 by MarketBeat.com Staff

Enter your email address below to receive a concise daily summary of analysts' upgrades, downgrades and new coverage with MarketBeat.com's FREE daily email newsletter.